sensor_id;sensor_type;location;lat;lon;timestamp;temperature;humidity
10472;DHT22;5283;48.876;8.962;2023-05-09T00:00:44;12.10;99.90
10472;DHT22;5283;48.876;8.962;2023-05-09T00:03:11;12.20;99.90
10472;DHT22;5283;48.876;8.962;2023-05-09T00:05:38;12.20;99.90
10472;DHT22;5283;48.876;8.962;2023-05-09T00:08:04;12.30;99.90
10472;DHT22;5283;48.876;8.962;2023-05-09T00:10:32;12.40;99.90
10472;DHT22;5283;48.876;8.962;2023-05-09T00:12:58;12.40;99.90
10472;DHT22;5283;48.876;8.962;2023-05-09T00:15:26;12.40;99.90
10472;DHT22;5283;48.876;8.962;2023-05-09T00:17:54;12.50;99.90
10472;DHT22;5283;48.876;8.962;2023-05-09T00:20:20;12.50;99.90
10472;DHT22;5283;48.876;8.962;2023-05-09T00:22:47;12.50;99.90
10472;DHT22;5283;48.876;8.962;2023-05-09T00:25:14;12.50;99.90
10472;DHT22;5283;48.876;8.962;2023-05-09T00:27:40;12.40;99.90
10472;DHT22;5283;48.876;8.962;2023-05-09T00:30:07;12.40;99.90
10472;DHT22;5283;48.876;8.962;2023-05-09T00:32:34;12.40;99.90
10472;DHT22;5283;48.876;8.962;2023-05-09T00:35:01;12.30;99.90
10472;DHT22;5283;48.876;8.962;2023-05-09T00:37:29;12.30;99.90
10472;DHT22;5283;48.876;8.962;2023-05-09T00:39:56;12.40;99.90
10472;DHT22;5283;48.876;8.962;2023-05-09T00:42:23;12.40;99.90
10472;DHT22;5283;48.876;8.962;2023-05-09T00:44:49;12.50;99.90
10472;DHT22;5283;48.876;8.962;2023-05-09T00:47:16;12.60;99.90
10472;DHT22;5283;48.876;8.962;2023-05-09T00:49:43;12.60;99.90
10472;DHT22;5283;48.876;8.962;2023-05-09T00:52:09;12.60;99.90
10472;DHT22;5283;48.876;8.962;2023-05-09T00:54:36;12.70;99.90
10472;DHT22;5283;48.876;8.962;2023-05-09T00:57:03;12.60;99.90
10472;DHT22;5283;48.876;8.962;2023-05-09T00:59:30;12.60;99.90
10472;DHT22;5283;48.876;8.962;2023-05-09T01:01:56;12.60;99.90
10472;DHT22;5283;48.876;8.962;2023-05-09T01:04:23;12.60;99.90
10472;DHT22;5283;48.876;8.962;2023-05-09T01:07:01;12.60;99.90
10472;DHT22;5283;48.876;8.962;2023-05-09T01:09:50;12.60;99.90
10472;DHT22;5283;48.876;8.962;2023-05-09T01:12:39;12.60;99.90
10472;DHT22;5283;48.876;8.962;2023-05-09T01:18:25;12.60;99.90
10472;DHT22;5283;48.876;8.962;2023-05-09T01:20:56;12.70;99.90
10472;DHT22;5283;48.876;8.962;2023-05-09T01:26:25;12.60;99.90
10472;DHT22;5283;48.876;8.962;2023-05-09T01:31:40;12.70;99.90
10472;DHT22;5283;48.876;8.962;2023-05-09T01:34:08;12.70;99.90
10472;DHT22;5283;48.876;8.962;2023-05-09T01:36:39;12.70;99.90
10472;DHT22;5283;48.876;8.962;2023-05-09T01:39:10;12.80;99.90
10472;DHT22;5283;48.876;8.962;2023-05-09T01:41:38;12.80;99.90
10472;DHT22;5283;48.876;8.962;2023-05-09T01:44:10;12.80;99.90
10472;DHT22;5283;48.876;8.962;2023-05-09T01:46:38;12.80;99.90
10472;DHT22;5283;48.876;8.962;2023-05-09T01:49:06;12.80;99.90
10472;DHT22;5283;48.876;8.962;2023-05-09T01:51:35;12.80;99.90
10472;DHT22;5283;48.876;8.962;2023-05-09T01:54:04;12.70;99.90
10472;DHT22;5283;48.876;8.962;2023-05-09T01:56:31;12.70;99.90
10472;DHT22;5283;48.876;8.962;2023-05-09T01:58:59;12.70;99.90
10472;DHT22;5283;48.876;8.962;2023-05-09T02:01:28;12.70;99.90
10472;DHT22;5283;48.876;8.962;2023-05-09T02:03:56;12.60;99.90
10472;DHT22;5283;48.876;8.962;2023-05-09T02:06:23;12.60;99.90
10472;DHT22;5283;48.876;8.962;2023-05-09T02:08:50;12.60;99.90
10472;DHT22;5283;48.876;8.962;2023-05-09T02:11:17;12.60;99.90
10472;DHT22;5283;48.876;8.962;2023-05-09T02:13:43;12.70;99.90
10472;DHT22;5283;48.876;8.962;2023-05-09T02:16:10;12.70;99.90
10472;DHT22;5283;48.876;8.962;2023-05-09T02:18:37;12.70;99.90
10472;DHT22;5283;48.876;8.962;2023-05-09T02:21:05;12.70;99.90
10472;DHT22;5283;48.876;8.962;2023-05-09T02:23:31;12.60;99.90
10472;DHT22;5283;48.876;8.962;2023-05-09T02:25:58;12.60;99.90
10472;DHT22;5283;48.876;8.962;2023-05-09T02:28:26;12.60;99.90
10472;DHT22;5283;48.876;8.962;2023-05-09T02:30:54;12.60;99.90
10472;DHT22;5283;48.876;8.962;2023-05-09T02:33:22;12.60;99.90
10472;DHT22;5283;48.876;8.962;2023-05-09T02:35:50;12.50;99.90
10472;DHT22;5283;48.876;8.962;2023-05-09T02:38:17;12.50;99.90
10472;DHT22;5283;48.876;8.962;2023-05-09T02:40:46;12.50;99.90
10472;DHT22;5283;48.876;8.962;2023-05-09T02:43:13;12.40;99.90
10472;DHT22;5283;48.876;8.962;2023-05-09T02:45:40;12.40;99.90
10472;DHT22;5283;48.876;8.962;2023-05-09T02:48:07;12.30;99.90
10472;DHT22;5283;48.876;8.962;2023-05-09T02:50:34;12.20;99.90
10472;DHT22;5283;48.876;8.962;2023-05-09T02:53:03;12.10;99.90
10472;DHT22;5283;48.876;8.962;2023-05-09T02:55:30;12.10;99.90
10472;DHT22;5283;48.876;8.962;2023-05-09T02:57:57;12.00;99.90
10472;DHT22;5283;48.876;8.962;2023-05-09T03:00:31;11.90;99.90
10472;DHT22;5283;48.876;8.962;2023-05-09T03:02:57;11.90;99.90
10472;DHT22;5283;48.876;8.962;2023-05-09T03:05:25;11.90;99.90
10472;DHT22;5283;48.876;8.962;2023-05-09T03:07:52;11.90;99.90
10472;DHT22;5283;48.876;8.962;2023-05-09T03:10:18;11.90;99.90
10472;DHT22;5283;48.876;8.962;2023-05-09T03:12:45;11.80;99.90
10472;DHT22;5283;48.876;8.962;2023-05-09T03:15:12;11.80;99.90
10472;DHT22;5283;48.876;8.962;2023-05-09T03:17:38;11.80;99.90
10472;DHT22;5283;48.876;8.962;2023-05-09T03:20:06;11.80;99.90
10472;DHT22;5283;48.876;8.962;2023-05-09T03:22:33;11.80;99.90
10472;DHT22;5283;48.876;8.962;2023-05-09T03:25:00;11.80;99.90
10472;DHT22;5283;48.876;8.962;2023-05-09T03:27:26;11.80;99.90
10472;DHT22;5283;48.876;8.962;2023-05-09T03:29:53;11.60;99.90
10472;DHT22;5283;48.876;8.962;2023-05-09T03:32:20;11.60;99.90
10472;DHT22;5283;48.876;8.962;2023-05-09T03:34:46;11.60;99.90
10472;DHT22;5283;48.876;8.962;2023-05-09T03:37:13;11.60;99.90
10472;DHT22;5283;48.876;8.962;2023-05-09T03:39:40;11.50;99.90
10472;DHT22;5283;48.876;8.962;2023-05-09T03:42:06;11.60;99.90
10472;DHT22;5283;48.876;8.962;2023-05-09T03:44:33;11.50;99.90
10472;DHT22;5283;48.876;8.962;2023-05-09T03:47:00;11.50;99.90
10472;DHT22;5283;48.876;8.962;2023-05-09T03:49:26;11.60;99.90
10472;DHT22;5283;48.876;8.962;2023-05-09T03:51:53;11.60;99.90
10472;DHT22;5283;48.876;8.962;2023-05-09T03:54:20;11.60;99.90
10472;DHT22;5283;48.876;8.962;2023-05-09T03:56:46;11.70;99.90
10472;DHT22;5283;48.876;8.962;2023-05-09T03:59:13;11.80;99.90
10472;DHT22;5283;48.876;8.962;2023-05-09T04:01:40;11.80;99.90
10472;DHT22;5283;48.876;8.962;2023-05-09T04:04:07;11.80;99.90
10472;DHT22;5283;48.876;8.962;2023-05-09T04:06:34;11.80;99.90
10472;DHT22;5283;48.876;8.962;2023-05-09T04:09:01;11.90;99.90
10472;DHT22;5283;48.876;8.962;2023-05-09T04:11:28;11.90;99.90
10472;DHT22;5283;48.876;8.962;2023-05-09T04:13:54;11.90;99.90
10472;DHT22;5283;48.876;8.962;2023-05-09T04:16:21;12.00;99.90
10472;DHT22;5283;48.876;8.962;2023-05-09T04:18:48;12.00;99.90
10472;DHT22;5283;48.876;8.962;2023-05-09T04:21:14;12.00;99.90
10472;DHT22;5283;48.876;8.962;2023-05-09T04:23:42;12.10;99.90
10472;DHT22;5283;48.876;8.962;2023-05-09T04:26:09;12.10;99.90
10472;DHT22;5283;48.876;8.962;2023-05-09T04:28:37;12.20;99.90
10472;DHT22;5283;48.876;8.962;2023-05-09T04:31:04;12.20;99.90
10472;DHT22;5283;48.876;8.962;2023-05-09T04:33:32;12.20;99.90
10472;DHT22;5283;48.876;8.962;2023-05-09T04:35:58;12.20;99.90
10472;DHT22;5283;48.876;8.962;2023-05-09T04:38:25;12.20;99.90
10472;DHT22;5283;48.876;8.962;2023-05-09T04:40:51;12.30;99.90
10472;DHT22;5283;48.876;8.962;2023-05-09T04:43:18;12.40;99.90
10472;DHT22;5283;48.876;8.962;2023-05-09T04:45:45;12.50;99.90
10472;DHT22;5283;48.876;8.962;2023-05-09T04:48:12;12.60;99.90
10472;DHT22;5283;48.876;8.962;2023-05-09T04:50:39;12.60;99.90
10472;DHT22;5283;48.876;8.962;2023-05-09T04:53:06;12.60;99.90
10472;DHT22;5283;48.876;8.962;2023-05-09T04:55:33;12.60;99.90
10472;DHT22;5283;48.876;8.962;2023-05-09T04:58:01;12.60;99.90
10472;DHT22;5283;48.876;8.962;2023-05-09T05:00:27;12.60;99.90
10472;DHT22;5283;48.876;8.962;2023-05-09T05:02:55;12.60;99.90
10472;DHT22;5283;48.876;8.962;2023-05-09T05:05:22;12.70;99.90
10472;DHT22;5283;48.876;8.962;2023-05-09T05:07:50;12.80;99.90
10472;DHT22;5283;48.876;8.962;2023-05-09T05:10:17;12.80;99.90
10472;DHT22;5283;48.876;8.962;2023-05-09T05:12:43;12.80;99.90
10472;DHT22;5283;48.876;8.962;2023-05-09T05:15:10;12.80;99.90
10472;DHT22;5283;48.876;8.962;2023-05-09T05:17:37;12.90;99.90
10472;DHT22;5283;48.876;8.962;2023-05-09T05:20:04;13.00;99.90
10472;DHT22;5283;48.876;8.962;2023-05-09T05:22:32;13.10;99.90
10472;DHT22;5283;48.876;8.962;2023-05-09T05:24:58;13.20;99.90
10472;DHT22;5283;48.876;8.962;2023-05-09T05:27:25;13.30;99.90
10472;DHT22;5283;48.876;8.962;2023-05-09T05:29:51;13.50;99.90
10472;DHT22;5283;48.876;8.962;2023-05-09T05:32:18;13.60;99.90
10472;DHT22;5283;48.876;8.962;2023-05-09T05:34:45;13.60;99.90
10472;DHT22;5283;48.876;8.962;2023-05-09T05:37:11;13.80;99.90
10472;DHT22;5283;48.876;8.962;2023-05-09T05:39:38;13.90;99.90
10472;DHT22;5283;48.876;8.962;2023-05-09T05:42:05;14.00;99.90
10472;DHT22;5283;48.876;8.962;2023-05-09T05:44:31;14.10;99.90
10472;DHT22;5283;48.876;8.962;2023-05-09T05:46:58;14.30;99.90
10472;DHT22;5283;48.876;8.962;2023-05-09T05:49:25;14.30;99.90
10472;DHT22;5283;48.876;8.962;2023-05-09T05:51:51;14.60;99.90
10472;DHT22;5283;48.876;8.962;2023-05-09T05:54:18;14.80;99.90
10472;DHT22;5283;48.876;8.962;2023-05-09T05:56:45;14.80;99.90
10472;DHT22;5283;48.876;8.962;2023-05-09T05:59:11;15.00;99.90
10472;DHT22;5283;48.876;8.962;2023-05-09T06:01:38;15.10;99.90
10472;DHT22;5283;48.876;8.962;2023-05-09T06:04:05;15.30;99.90
10472;DHT22;5283;48.876;8.962;2023-05-09T06:06:32;15.40;99.90
10472;DHT22;5283;48.876;8.962;2023-05-09T06:08:59;15.50;99.90
10472;DHT22;5283;48.876;8.962;2023-05-09T06:11:26;15.60;99.90
10472;DHT22;5283;48.876;8.962;2023-05-09T06:13:53;15.60;99.90
10472;DHT22;5283;48.876;8.962;2023-05-09T06:16:19;15.70;99.90
10472;DHT22;5283;48.876;8.962;2023-05-09T06:18:47;15.50;99.90
10472;DHT22;5283;48.876;8.962;2023-05-09T06:21:13;15.70;99.90
10472;DHT22;5283;48.876;8.962;2023-05-09T06:23:40;15.80;99.90
10472;DHT22;5283;48.876;8.962;2023-05-09T06:26:13;15.90;99.90
10472;DHT22;5283;48.876;8.962;2023-05-09T06:28:40;15.90;99.90
10472;DHT22;5283;48.876;8.962;2023-05-09T06:31:07;16.00;99.90
10472;DHT22;5283;48.876;8.962;2023-05-09T06:33:33;15.70;99.90
10472;DHT22;5283;48.876;8.962;2023-05-09T06:36:00;15.90;99.90
10472;DHT22;5283;48.876;8.962;2023-05-09T06:38:26;16.20;99.90
10472;DHT22;5283;48.876;8.962;2023-05-09T06:40:53;16.30;99.90
10472;DHT22;5283;48.876;8.962;2023-05-09T06:43:20;16.40;99.90
10472;DHT22;5283;48.876;8.962;2023-05-09T06:45:47;16.50;99.90
10472;DHT22;5283;48.876;8.962;2023-05-09T06:48:13;16.70;99.90
10472;DHT22;5283;48.876;8.962;2023-05-09T06:50:40;16.90;99.90
10472;DHT22;5283;48.876;8.962;2023-05-09T06:53:06;17.20;99.90
10472;DHT22;5283;48.876;8.962;2023-05-09T06:55:33;17.60;99.90
10472;DHT22;5283;48.876;8.962;2023-05-09T06:58:00;18.00;99.90
10472;DHT22;5283;48.876;8.962;2023-05-09T07:00:27;18.40;99.90
10472;DHT22;5283;48.876;8.962;2023-05-09T07:02:53;18.70;99.90
10472;DHT22;5283;48.876;8.962;2023-05-09T07:05:20;19.10;99.90
10472;DHT22;5283;48.876;8.962;2023-05-09T07:07:47;19.40;99.90
10472;DHT22;5283;48.876;8.962;2023-05-09T07:10:13;19.60;99.90
10472;DHT22;5283;48.876;8.962;2023-05-09T07:12:40;19.90;99.90
10472;DHT22;5283;48.876;8.962;2023-05-09T07:15:07;20.00;99.90
10472;DHT22;5283;48.876;8.962;2023-05-09T07:17:34;20.40;99.90
10472;DHT22;5283;48.876;8.962;2023-05-09T07:20:01;21.30;99.90
10472;DHT22;5283;48.876;8.962;2023-05-09T07:22:29;21.70;99.90
10472;DHT22;5283;48.876;8.962;2023-05-09T07:24:57;22.30;99.90
10472;DHT22;5283;48.876;8.962;2023-05-09T07:27:23;21.90;99.90
10472;DHT22;5283;48.876;8.962;2023-05-09T07:29:50;22.00;99.90
10472;DHT22;5283;48.876;8.962;2023-05-09T07:32:18;22.60;99.90
10472;DHT22;5283;48.876;8.962;2023-05-09T07:34:45;23.10;99.90
10472;DHT22;5283;48.876;8.962;2023-05-09T07:37:11;23.10;99.90
10472;DHT22;5283;48.876;8.962;2023-05-09T07:39:39;23.10;99.90
10472;DHT22;5283;48.876;8.962;2023-05-09T07:42:06;22.30;99.90
10472;DHT22;5283;48.876;8.962;2023-05-09T07:44:33;22.10;99.90
10472;DHT22;5283;48.876;8.962;2023-05-09T07:47:00;22.40;99.90
10472;DHT22;5283;48.876;8.962;2023-05-09T07:49:28;22.00;99.90
10472;DHT22;5283;48.876;8.962;2023-05-09T07:51:54;21.10;99.90
10472;DHT22;5283;48.876;8.962;2023-05-09T07:54:21;21.40;99.90
10472;DHT22;5283;48.876;8.962;2023-05-09T07:56:48;21.00;99.90
10472;DHT22;5283;48.876;8.962;2023-05-09T07:59:14;20.70;99.90
10472;DHT22;5283;48.876;8.962;2023-05-09T08:01:41;21.00;99.90
10472;DHT22;5283;48.876;8.962;2023-05-09T08:04:08;21.30;99.90
10472;DHT22;5283;48.876;8.962;2023-05-09T08:06:35;21.70;99.90
10472;DHT22;5283;48.876;8.962;2023-05-09T08:09:02;22.10;99.90
10472;DHT22;5283;48.876;8.962;2023-05-09T08:11:34;21.10;99.90
10472;DHT22;5283;48.876;8.962;2023-05-09T08:14:01;20.60;99.90
10472;DHT22;5283;48.876;8.962;2023-05-09T08:16:28;20.80;99.90
10472;DHT22;5283;48.876;8.962;2023-05-09T08:18:54;20.70;99.90
10472;DHT22;5283;48.876;8.962;2023-05-09T08:21:21;21.00;99.90
10472;DHT22;5283;48.876;8.962;2023-05-09T08:23:48;21.50;99.90
10472;DHT22;5283;48.876;8.962;2023-05-09T08:26:14;21.90;99.90
10472;DHT22;5283;48.876;8.962;2023-05-09T08:28:41;22.30;99.90
10472;DHT22;5283;48.876;8.962;2023-05-09T08:31:08;22.50;99.90
10472;DHT22;5283;48.876;8.962;2023-05-09T08:33:35;22.40;99.90
10472;DHT22;5283;48.876;8.962;2023-05-09T08:36:01;22.10;99.90
10472;DHT22;5283;48.876;8.962;2023-05-09T08:38:28;22.10;99.90
10472;DHT22;5283;48.876;8.962;2023-05-09T08:41:01;22.10;99.90
10472;DHT22;5283;48.876;8.962;2023-05-09T08:43:28;22.20;99.90
10472;DHT22;5283;48.876;8.962;2023-05-09T08:45:59;22.10;99.90
10472;DHT22;5283;48.876;8.962;2023-05-09T08:48:29;22.20;99.90
10472;DHT22;5283;48.876;8.962;2023-05-09T08:50:56;22.00;99.90
10472;DHT22;5283;48.876;8.962;2023-05-09T08:53:23;21.90;99.90
10472;DHT22;5283;48.876;8.962;2023-05-09T08:55:50;21.90;99.90
10472;DHT22;5283;48.876;8.962;2023-05-09T08:58:18;21.80;99.90
10472;DHT22;5283;48.876;8.962;2023-05-09T09:00:46;21.70;99.90
10472;DHT22;5283;48.876;8.962;2023-05-09T09:03:13;21.50;99.90
10472;DHT22;5283;48.876;8.962;2023-05-09T09:05:41;20.70;99.90
10472;DHT22;5283;48.876;8.962;2023-05-09T09:08:09;20.40;99.90
10472;DHT22;5283;48.876;8.962;2023-05-09T09:10:39;20.30;99.90
10472;DHT22;5283;48.876;8.962;2023-05-09T09:13:09;20.30;99.90
10472;DHT22;5283;48.876;8.962;2023-05-09T09:15:37;20.40;99.90
10472;DHT22;5283;48.876;8.962;2023-05-09T09:18:07;20.60;99.90
10472;DHT22;5283;48.876;8.962;2023-05-09T09:20:40;20.80;99.90
10472;DHT22;5283;48.876;8.962;2023-05-09T09:23:08;21.00;99.90
10472;DHT22;5283;48.876;8.962;2023-05-09T09:25:38;21.30;99.90
10472;DHT22;5283;48.876;8.962;2023-05-09T09:28:05;21.70;99.90
10472;DHT22;5283;48.876;8.962;2023-05-09T09:30:31;21.90;99.90
10472;DHT22;5283;48.876;8.962;2023-05-09T09:32:58;22.20;99.90
10472;DHT22;5283;48.876;8.962;2023-05-09T09:35:25;22.40;99.90
10472;DHT22;5283;48.876;8.962;2023-05-09T09:37:56;22.70;99.90
10472;DHT22;5283;48.876;8.962;2023-05-09T09:40:26;23.10;99.90
10472;DHT22;5283;48.876;8.962;2023-05-09T09:42:52;23.30;99.90
10472;DHT22;5283;48.876;8.962;2023-05-09T09:45:19;23.60;99.90
10472;DHT22;5283;48.876;8.962;2023-05-09T09:47:47;23.90;99.90
10472;DHT22;5283;48.876;8.962;2023-05-09T09:50:19;24.00;99.90
10472;DHT22;5283;48.876;8.962;2023-05-09T09:52:52;23.70;99.90
10472;DHT22;5283;48.876;8.962;2023-05-09T09:55:19;23.70;99.90
10472;DHT22;5283;48.876;8.962;2023-05-09T09:57:47;23.80;99.90
10472;DHT22;5283;48.876;8.962;2023-05-09T10:00:15;23.90;99.90
10472;DHT22;5283;48.876;8.962;2023-05-09T10:05:33;23.90;99.90
10472;DHT22;5283;48.876;8.962;2023-05-09T10:08:04;23.90;99.90
10472;DHT22;5283;48.876;8.962;2023-05-09T10:10:34;23.70;99.90
10472;DHT22;5283;48.876;8.962;2023-05-09T10:13:06;23.80;99.90
10472;DHT22;5283;48.876;8.962;2023-05-09T10:15:34;23.70;99.90
10472;DHT22;5283;48.876;8.962;2023-05-09T10:18:08;23.50;99.90
10472;DHT22;5283;48.876;8.962;2023-05-09T10:20:37;23.50;99.90
10472;DHT22;5283;48.876;8.962;2023-05-09T10:23:06;23.40;99.90
10472;DHT22;5283;48.876;8.962;2023-05-09T10:25:46;23.50;99.90
10472;DHT22;5283;48.876;8.962;2023-05-09T10:28:16;23.60;99.90
10472;DHT22;5283;48.876;8.962;2023-05-09T10:30:58;23.60;99.90
10472;DHT22;5283;48.876;8.962;2023-05-09T10:33:36;23.60;99.90
10472;DHT22;5283;48.876;8.962;2023-05-09T10:36:04;23.20;99.90
10472;DHT22;5283;48.876;8.962;2023-05-09T10:38:31;23.30;99.90
10472;DHT22;5283;48.876;8.962;2023-05-09T10:40:59;23.50;99.90
10472;DHT22;5283;48.876;8.962;2023-05-09T10:43:26;23.50;99.90
10472;DHT22;5283;48.876;8.962;2023-05-09T10:45:53;23.80;99.90
10472;DHT22;5283;48.876;8.962;2023-05-09T10:48:21;24.00;99.90
10472;DHT22;5283;48.876;8.962;2023-05-09T10:50:48;24.20;99.90
10472;DHT22;5283;48.876;8.962;2023-05-09T10:53:15;24.50;99.90
10472;DHT22;5283;48.876;8.962;2023-05-09T10:55:56;24.40;99.90
10472;DHT22;5283;48.876;8.962;2023-05-09T10:58:30;24.40;99.90
10472;DHT22;5283;48.876;8.962;2023-05-09T11:01:00;24.60;99.90
10472;DHT22;5283;48.876;8.962;2023-05-09T11:03:28;24.40;99.90
10472;DHT22;5283;48.876;8.962;2023-05-09T11:06:41;24.50;99.90
10472;DHT22;5283;48.876;8.962;2023-05-09T11:11:51;25.00;99.90
10472;DHT22;5283;48.876;8.962;2023-05-09T11:17:05;24.60;99.90
10472;DHT22;5283;48.876;8.962;2023-05-09T11:22:24;24.10;99.90
10472;DHT22;5283;48.876;8.962;2023-05-09T11:25:06;24.20;99.90
10472;DHT22;5283;48.876;8.962;2023-05-09T11:27:50;24.50;99.90
10472;DHT22;5283;48.876;8.962;2023-05-09T11:30:19;24.80;99.90
10472;DHT22;5283;48.876;8.962;2023-05-09T11:32:49;24.50;99.90
10472;DHT22;5283;48.876;8.962;2023-05-09T11:35:18;24.50;99.90
10472;DHT22;5283;48.876;8.962;2023-05-09T11:37:50;24.70;99.90
10472;DHT22;5283;48.876;8.962;2023-05-09T11:40:19;24.90;99.90
10472;DHT22;5283;48.876;8.962;2023-05-09T11:42:50;25.20;99.90
10472;DHT22;5283;48.876;8.962;2023-05-09T11:45:25;25.60;99.90
10472;DHT22;5283;48.876;8.962;2023-05-09T11:47:52;25.50;99.90
10472;DHT22;5283;48.876;8.962;2023-05-09T11:50:20;25.70;99.90
10472;DHT22;5283;48.876;8.962;2023-05-09T11:52:48;25.70;99.90
10472;DHT22;5283;48.876;8.962;2023-05-09T11:55:19;25.00;99.90
10472;DHT22;5283;48.876;8.962;2023-05-09T11:57:52;25.40;99.90
10472;DHT22;5283;48.876;8.962;2023-05-09T12:00:21;25.60;99.90
10472;DHT22;5283;48.876;8.962;2023-05-09T12:02:48;25.80;99.90
10472;DHT22;5283;48.876;8.962;2023-05-09T12:05:18;25.90;99.90
10472;DHT22;5283;48.876;8.962;2023-05-09T12:07:46;26.00;99.90
10472;DHT22;5283;48.876;8.962;2023-05-09T12:10:18;26.00;99.90
10472;DHT22;5283;48.876;8.962;2023-05-09T12:12:47;26.00;99.90
10472;DHT22;5283;48.876;8.962;2023-05-09T12:15:15;26.00;99.90
10472;DHT22;5283;48.876;8.962;2023-05-09T12:17:43;25.90;99.90
10472;DHT22;5283;48.876;8.962;2023-05-09T12:20:10;25.70;99.90
10472;DHT22;5283;48.876;8.962;2023-05-09T12:22:42;25.60;99.90
10472;DHT22;5283;48.876;8.962;2023-05-09T12:25:10;25.70;99.90
10472;DHT22;5283;48.876;8.962;2023-05-09T12:27:38;25.30;99.90
10472;DHT22;5283;48.876;8.962;2023-05-09T12:30:06;25.00;99.90
10472;DHT22;5283;48.876;8.962;2023-05-09T12:32:37;25.00;99.90
10472;DHT22;5283;48.876;8.962;2023-05-09T12:35:06;25.20;99.90
10472;DHT22;5283;48.876;8.962;2023-05-09T12:37:33;25.10;99.90
10472;DHT22;5283;48.876;8.962;2023-05-09T12:40:09;25.10;99.90
10472;DHT22;5283;48.876;8.962;2023-05-09T12:42:38;25.10;99.90
10472;DHT22;5283;48.876;8.962;2023-05-09T12:45:08;25.30;99.90
10472;DHT22;5283;48.876;8.962;2023-05-09T12:47:36;25.60;99.90
10472;DHT22;5283;48.876;8.962;2023-05-09T12:50:06;25.60;99.90
10472;DHT22;5283;48.876;8.962;2023-05-09T12:52:34;25.60;99.90
10472;DHT22;5283;48.876;8.962;2023-05-09T12:55:07;25.60;99.90
10472;DHT22;5283;48.876;8.962;2023-05-09T12:57:34;25.70;99.90
10472;DHT22;5283;48.876;8.962;2023-05-09T13:00:03;25.80;99.90
10472;DHT22;5283;48.876;8.962;2023-05-09T13:02:40;25.70;99.90
10472;DHT22;5283;48.876;8.962;2023-05-09T13:05:08;25.50;99.90
10472;DHT22;5283;48.876;8.962;2023-05-09T13:07:50;25.40;99.90
10472;DHT22;5283;48.876;8.962;2023-05-09T13:10:24;25.30;99.90
10472;DHT22;5283;48.876;8.962;2023-05-09T13:12:51;25.40;99.90
10472;DHT22;5283;48.876;8.962;2023-05-09T13:15:19;25.50;99.90
10472;DHT22;5283;48.876;8.962;2023-05-09T13:17:50;25.60;99.90
10472;DHT22;5283;48.876;8.962;2023-05-09T13:20:17;25.70;99.90
10472;DHT22;5283;48.876;8.962;2023-05-09T13:22:45;25.80;99.90
10472;DHT22;5283;48.876;8.962;2023-05-09T13:25:12;25.70;99.90
10472;DHT22;5283;48.876;8.962;2023-05-09T13:27:38;25.90;99.90
10472;DHT22;5283;48.876;8.962;2023-05-09T13:30:05;26.10;99.90
10472;DHT22;5283;48.876;8.962;2023-05-09T13:32:33;26.10;99.90
10472;DHT22;5283;48.876;8.962;2023-05-09T13:35:02;26.00;99.90
10472;DHT22;5283;48.876;8.962;2023-05-09T13:37:29;25.70;99.90
10472;DHT22;5283;48.876;8.962;2023-05-09T13:39:56;25.90;99.90
10472;DHT22;5283;48.876;8.962;2023-05-09T13:42:23;26.10;99.90
10472;DHT22;5283;48.876;8.962;2023-05-09T13:44:50;26.30;99.90
10472;DHT22;5283;48.876;8.962;2023-05-09T13:47:16;26.30;99.90
10472;DHT22;5283;48.876;8.962;2023-05-09T13:49:44;26.20;99.90
10472;DHT22;5283;48.876;8.962;2023-05-09T13:52:11;26.20;99.90
10472;DHT22;5283;48.876;8.962;2023-05-09T13:54:37;25.60;99.90
10472;DHT22;5283;48.876;8.962;2023-05-09T13:57:04;24.50;99.90
10472;DHT22;5283;48.876;8.962;2023-05-09T13:59:31;23.50;99.90
10472;DHT22;5283;48.876;8.962;2023-05-09T14:01:59;23.20;99.90
10472;DHT22;5283;48.876;8.962;2023-05-09T14:04:27;23.80;99.90
10472;DHT22;5283;48.876;8.962;2023-05-09T14:06:54;24.00;99.90
10472;DHT22;5283;48.876;8.962;2023-05-09T14:09:21;24.20;99.90
10472;DHT22;5283;48.876;8.962;2023-05-09T14:11:49;25.00;99.90
10472;DHT22;5283;48.876;8.962;2023-05-09T14:14:19;25.30;99.90
10472;DHT22;5283;48.876;8.962;2023-05-09T14:16:47;24.90;99.90
10472;DHT22;5283;48.876;8.962;2023-05-09T14:19:15;25.00;99.90
10472;DHT22;5283;48.876;8.962;2023-05-09T14:21:43;25.00;99.90
10472;DHT22;5283;48.876;8.962;2023-05-09T14:24:10;25.40;99.90
10472;DHT22;5283;48.876;8.962;2023-05-09T14:26:39;25.50;99.90
10472;DHT22;5283;48.876;8.962;2023-05-09T14:29:05;25.20;99.90
10472;DHT22;5283;48.876;8.962;2023-05-09T14:31:32;25.30;99.90
10472;DHT22;5283;48.876;8.962;2023-05-09T14:33:59;25.30;99.90
10472;DHT22;5283;48.876;8.962;2023-05-09T14:36:26;25.30;99.90
10472;DHT22;5283;48.876;8.962;2023-05-09T14:38:53;25.20;99.90
10472;DHT22;5283;48.876;8.962;2023-05-09T14:41:20;24.90;99.90
10472;DHT22;5283;48.876;8.962;2023-05-09T14:43:47;24.60;99.90
10472;DHT22;5283;48.876;8.962;2023-05-09T14:46:14;24.50;99.90
10472;DHT22;5283;48.876;8.962;2023-05-09T14:48:41;24.50;99.90
10472;DHT22;5283;48.876;8.962;2023-05-09T14:51:07;24.50;99.90
10472;DHT22;5283;48.876;8.962;2023-05-09T14:53:34;24.30;99.90
10472;DHT22;5283;48.876;8.962;2023-05-09T14:56:05;23.60;99.90
10472;DHT22;5283;48.876;8.962;2023-05-09T14:58:36;22.80;99.90
10472;DHT22;5283;48.876;8.962;2023-05-09T15:01:03;22.60;99.90
10472;DHT22;5283;48.876;8.962;2023-05-09T15:03:30;21.50;99.90
10472;DHT22;5283;48.876;8.962;2023-05-09T15:05:57;20.20;99.90
10472;DHT22;5283;48.876;8.962;2023-05-09T15:08:27;19.70;99.90
10472;DHT22;5283;48.876;8.962;2023-05-09T15:10:53;19.40;99.90
10472;DHT22;5283;48.876;8.962;2023-05-09T15:13:20;18.40;99.90
10472;DHT22;5283;48.876;8.962;2023-05-09T15:15:47;17.80;99.90
10472;DHT22;5283;48.876;8.962;2023-05-09T15:18:14;17.90;99.90
10472;DHT22;5283;48.876;8.962;2023-05-09T15:20:42;17.80;99.90
10472;DHT22;5283;48.876;8.962;2023-05-09T15:23:10;17.80;99.90
10472;DHT22;5283;48.876;8.962;2023-05-09T15:25:39;17.80;99.90
10472;DHT22;5283;48.876;8.962;2023-05-09T15:28:07;17.80;99.90
10472;DHT22;5283;48.876;8.962;2023-05-09T15:30:33;17.70;99.90
10472;DHT22;5283;48.876;8.962;2023-05-09T15:33:03;17.80;99.90
10472;DHT22;5283;48.876;8.962;2023-05-09T15:35:30;18.00;99.90
10472;DHT22;5283;48.876;8.962;2023-05-09T15:37:56;18.20;99.90
10472;DHT22;5283;48.876;8.962;2023-05-09T15:40:23;18.40;99.90
10472;DHT22;5283;48.876;8.962;2023-05-09T15:42:50;18.60;99.90
10472;DHT22;5283;48.876;8.962;2023-05-09T15:45:16;18.60;99.90
10472;DHT22;5283;48.876;8.962;2023-05-09T15:47:43;18.40;99.90
10472;DHT22;5283;48.876;8.962;2023-05-09T15:50:10;18.30;99.90
10472;DHT22;5283;48.876;8.962;2023-05-09T15:52:37;18.20;99.90
10472;DHT22;5283;48.876;8.962;2023-05-09T15:55:04;18.20;99.90
10472;DHT22;5283;48.876;8.962;2023-05-09T15:57:31;18.30;99.90
10472;DHT22;5283;48.876;8.962;2023-05-09T15:59:58;18.30;99.90
10472;DHT22;5283;48.876;8.962;2023-05-09T16:02:25;18.30;99.90
10472;DHT22;5283;48.876;8.962;2023-05-09T16:04:51;18.30;99.90
10472;DHT22;5283;48.876;8.962;2023-05-09T16:07:18;18.40;99.90
10472;DHT22;5283;48.876;8.962;2023-05-09T16:09:45;18.50;99.90